Time;durP1;ratioP1;P1;durP2;ratioP2;P2;SDS_P1;SDS_P2;PMS_P1;PMS_P2;Temp;Humidity;BMP_temperature;BMP_pressure;BME280_temperature;BME280_humidity;BME280_pressure;Samples;Min_cycle;Max_cycle;Signal;HPM_P1;HPM_P2
2021/04/19 00:01:16;;;;;;;;;;;;;;;7.59;76.54;101320.36;1747384;81;20252;-72
2021/04/19 00:03:48;;;;;;;;;;;;;;;7.58;76.55;101319.06;1741389;81;20260;-72
2021/04/19 00:06:14;;;;;;;;;;;;;;;7.56;76.63;101315.62;1742303;80;20565;-72
2021/04/19 00:08:40;;;;;;;;;;;;;;;7.55;76.55;101320.33;1745754;80;20256;-72
2021/04/19 00:11:06;;;;;;;;;;;;;;;7.52;76.55;101321.16;1751797;81;20240;-72
2021/04/19 00:13:32;;;;;;;;;;;;;;;7.46;76.39;101325.40;1750983;80;20272;-72
2021/04/19 00:15:59;;;;;;;;;;;;;;;7.42;76.63;101319.79;1747184;81;20183;-72
2021/04/19 00:18:25;;;;;;;;;;;;;;;7.38;76.49;101323.19;1747810;80;20184;-72
2021/04/19 00:20:51;;;;;;;;;;;;;;;7.29;76.62;101324.83;1744939;80;20249;-72
2021/04/19 00:23:17;;;;;;;;;;;;;;;7.28;76.69;101314.52;1745522;80;20286;-72
2021/04/19 00:25:43;;;;;;;;;;;;;;;7.27;76.85;101311.13;1752236;80;20180;-72
2021/04/19 00:28:09;;;;;;;;;;;;;;;7.28;76.83;101307.67;1742715;81;20260;-72
2021/04/19 00:30:35;;;;;;;;;;;;;;;7.26;76.78;101299.53;1742569;81;20281;-72
2021/04/19 00:33:01;;;;;;;;;;;;;;;7.23;76.70;101304.66;1753466;80;20192;-72
2021/04/19 00:35:27;;;;;;;;;;;;;;;7.21;76.79;101305.92;1742281;80;20429;-72
2021/04/19 00:37:53;;;;;;;;;;;;;;;7.18;76.89;101308.89;1741965;80;20252;-72
2021/04/19 00:40:20;;;;;;;;;;;;;;;7.16;76.91;101314.45;1742604;81;20268;-72
2021/04/19 00:42:49;;;;;;;;;;;;;;;7.14;76.79;101313.57;1738345;80;21020;-72
2021/04/19 00:45:15;;;;;;;;;;;;;;;7.11;76.99;101317.40;1751034;81;20252;-72
2021/04/19 00:47:45;;;;;;;;;;;;;;;7.10;76.97;101309.24;1743296;81;20388;-72
2021/04/19 00:50:12;;;;;;;;;;;;;;;7.10;76.98;101306.67;1744622;80;20264;-72
2021/04/19 00:52:38;;;;;;;;;;;;;;;7.08;77.10;101287.38;1733038;80;20286;-72
2021/04/19 00:55:07;;;;;;;;;;;;;;;7.04;76.90;101283.05;1746179;81;20276;-72
2021/04/19 00:57:33;;;;;;;;;;;;;;;7.05;77.18;101286.48;1754818;81;20472;-72
2021/04/19 01:00:00;;;;;;;;;;;;;;;7.08;77.23;101283.94;1733562;81;20277;-72
2021/04/19 01:02:26;;;;;;;;;;;;;;;;;;1743660;81;20269;-72
2021/04/19 01:04:52;;;;;;;;;;;;;;;7.12;77.30;101268.55;1739331;80;20208;-72
2021/04/19 01:07:18;;;;;;;;;;;;;;;7.13;77.20;101270.27;1754524;80;21187;-72
2021/04/19 01:09:45;;;;;;;;;;;;;;;7.10;77.13;101274.11;1743118;81;20247;-72
2021/04/19 01:12:11;;;;;;;;;;;;;;;7.10;77.16;101289.95;1745180;81;20265;-72
2021/04/19 01:14:37;;;;;;;;;;;;;;;7.09;77.21;101304.95;1740580;80;20281;-72
2021/04/19 01:17:03;;;;;;;;;;;;;;;7.06;77.17;101295.92;1746833;81;20251;-72
2021/04/19 01:19:29;;;;;;;;;;;;;;;7.05;77.26;101295.48;1751383;80;20264;-72
2021/04/19 01:21:56;;;;;;;;;;;;;;;7.04;77.33;101293.34;1754827;81;20261;-72
2021/04/19 01:24:23;;;;;;;;;;;;;;;7.04;77.30;101298.48;1748171;80;20264;-72
2021/04/19 01:26:49;;;;;;;;;;;;;;;7.05;77.32;101300.63;1752860;80;21029;-72
2021/04/19 01:29:15;;;;;;;;;;;;;;;7.01;77.20;101306.16;1747179;80;20176;-72
2021/04/19 01:31:40;;;;;;;;;;;;;;;6.95;77.11;101306.09;1750982;80;20283;-72
2021/04/19 01:34:06;;;;;;;;;;;;;;;6.87;77.16;101311.16;1754576;81;20220;-72
2021/04/19 01:36:33;;;;;;;;;;;;;;;6.86;77.27;101311.14;1746629;81;20282;-72
2021/04/19 01:38:59;;;;;;;;;;;;;;;6.81;77.18;101312.38;1750339;80;20260;-72
2021/04/19 01:41:26;;;;;;;;;;;;;;;6.80;77.42;101317.09;1750035;80;20272;-72
2021/04/19 01:43:52;;;;;;;;;;;;;;;6.82;77.49;101315.39;1734700;81;20260;-72
2021/04/19 01:46:18;;;;;;;;;;;;;;;6.82;77.44;101310.67;1746313;81;21152;-72
2021/04/19 01:48:44;;;;;;;;;;;;;;;6.82;77.49;101299.11;1742552;80;20384;-72
2021/04/19 01:51:10;;;;;;;;;;;;;;;6.83;77.56;101302.13;1752363;80;20206;-72
2021/04/19 01:53:36;;;;;;;;;;;;;;;6.82;77.50;101297.40;1747078;81;20262;-72
2021/04/19 01:56:02;;;;;;;;;;;;;;;6.81;77.44;101297.38;1743417;80;20277;-72
2021/04/19 01:58:28;;;;;;;;;;;;;;;6.75;77.40;101293.08;1743588;81;20223;-72
2021/04/19 02:00:57;;;;;;;;;;;;;;;6.75;77.60;101288.36;1751532;80;20688;-72
2021/04/19 02:04:00;;;;;;;;;;;;;;;6.74;77.54;101285.34;1742515;81;20254;-72
2021/04/19 02:06:54;;;;;;;;;;;;;;;6.71;77.50;101286.17;1751406;80;20157;-72
2021/04/19 02:09:26;;;;;;;;;;;;;;;6.68;77.53;101285.28;1747543;81;20254;-72
2021/04/19 02:12:20;;;;;;;;;;;;;;;6.67;77.58;101283.14;1752703;81;20160;-72
2021/04/19 02:15:12;;;;;;;;;;;;;;;6.68;77.62;101284.86;1751380;81;20272;-72
2021/04/19 02:18:14;;;;;;;;;;;;;;;6.67;77.48;101286.12;1740795;81;20167;-72
2021/04/19 02:20:52;;;;;;;;;;;;;;;6.61;77.47;101286.92;1736488;81;20259;-72
2021/04/19 02:23:22;;;;;;;;;;;;;;;6.53;77.54;101278.27;1749028;80;20256;-72
2021/04/19 02:25:50;;;;;;;;;;;;;;;6.53;77.71;101268.85;1738089;81;20503;-72
2021/04/19 02:28:28;;;;;;;;;;;;;;;6.54;77.71;101264.58;1739706;80;20352;-72
2021/04/19 02:31:02;;;;;;;;;;;;;;;6.53;77.72;101253.44;1746476;81;20311;-72
2021/04/19 02:33:31;;;;;;;;;;;;;;;6.55;77.76;101254.73;1748603;81;20376;-72
2021/04/19 02:35:57;;;;;;;;;;;;;;;6.53;77.78;101248.30;1729944;81;20250;-72
2021/04/19 02:38:28;;;;;;;;;;;;;;;6.52;77.68;101249.14;1722620;82;20589;-72
2021/04/19 02:40:56;;;;;;;;;;;;;;;6.48;77.67;101254.23;1726895;82;20285;-72
2021/04/19 02:43:23;;;;;;;;;;;;;;;6.44;77.69;101249.91;1729474;82;20191;-72
2021/04/19 02:45:51;;;;;;;;;;;;;;;6.42;77.82;101256.73;1718522;81;20489;-72
2021/04/19 02:48:18;;;;;;;;;;;;;;;6.43;77.84;101262.31;1730549;82;20259;-72
2021/04/19 02:50:44;;;;;;;;;;;;;;;6.43;77.84;101259.73;1716610;81;20177;-72
2021/04/19 02:53:12;;;;;;;;;;;;;;;6.41;77.84;101259.72;1723932;82;20176;-72
2021/04/19 02:55:39;;;;;;;;;;;;;;;6.42;78.00;101259.30;1730440;81;20159;-72
2021/04/19 02:58:07;;;;;;;;;;;;;;;6.45;77.99;101258.05;1725414;82;20188;-72
2021/04/19 03:00:36;;;;;;;;;;;;;;;6.44;77.92;101254.62;1731289;82;20269;-72
2021/04/19 03:03:06;;;;;;;;;;;;;;;6.46;78.05;101254.64;1730300;82;20159;-72
2021/04/19 03:05:33;;;;;;;;;;;;;;;6.47;78.00;101257.22;1718799;81;21060;-72
2021/04/19 03:08:02;;;;;;;;;;;;;;;6.48;78.08;101255.09;1723653;81;20189;-72
2021/04/19 03:10:31;;;;;;;;;;;;;;;6.48;77.97;101262.80;1726430;81;20143;-72
2021/04/19 03:12:58;;;;;;;;;;;;;;;6.46;77.97;101269.62;1699161;83;20205;-72
2021/04/19 03:15:29;;;;;;;;;;;;;;;6.45;78.07;101276.89;1715012;82;20278;-72
2021/04/19 03:17:57;;;;;;;;;;;;;;;6.45;78.20;101278.17;1723775;81;20427;-72
2021/04/19 03:20:29;;;;;;;;;;;;;;;6.49;78.30;101274.80;1727509;82;20517;-72
2021/04/19 03:22:56;;;;;;;;;;;;;;;6.54;78.39;101269.72;1696474;82;20187;-72
2021/04/19 03:25:24;;;;;;;;;;;;;;;6.59;78.47;101257.36;1727101;81;20191;-72
2021/04/19 03:27:53;;;;;;;;;;;;;;;6.64;78.45;101258.27;1731793;82;20258;-72
2021/04/19 03:30:19;;;;;;;;;;;;;;;6.70;78.51;101263.03;1732708;82;20250;-72
2021/04/19 03:32:51;;;;;;;;;;;;;;;6.75;78.50;101302.49;1718804;81;20165;-72
2021/04/19 03:35:21;;;;;;;;;;;;;;;6.77;78.45;101365.02;1729873;81;20353;-72
2021/04/19 03:37:49;;;;;;;;;;;;;;;6.81;78.70;101359.94;1749751;80;20191;-72
2021/04/19 03:40:24;;;;;;;;;;;;;;;6.92;78.75;101357.48;1742451;81;20281;-72
2021/04/19 03:42:52;;;;;;;;;;;;;;;7.05;78.89;101353.34;1742962;80;20291;-72
2021/04/19 03:45:19;;;;;;;;;;;;;;;7.17;79.12;101338.89;1745743;80;20185;-72
2021/04/19 03:47:47;;;;;;;;;;;;;;;7.24;79.13;101339.39;1743226;80;20165;-72
2021/04/19 03:50:13;;;;;;;;;;;;;;;7.34;79.25;101343.30;1746942;80;20165;-72
2021/04/19 03:52:46;;;;;;;;;;;;;;;7.45;79.30;101332.68;1749258;81;20220;-72
2021/04/19 03:55:14;;;;;;;;;;;;;;;7.54;79.23;101318.60;1736251;81;20729;-72
2021/04/19 03:57:42;;;;;;;;;;;;;;;7.62;79.17;101320.81;1733959;81;20501;-72
2021/04/19 04:00:14;;;;;;;;;;;;;;;7.68;79.24;101323.43;1724089;80;20349;-72
2021/04/19 04:02:45;;;;;;;;;;;;;;;7.73;79.21;101316.60;1750188;80;20547;-72
2021/04/19 04:05:12;;;;;;;;;;;;;;;7.79;79.22;101310.20;1736440;80;20603;-72
2021/04/19 04:07:40;;;;;;;;;;;;;;;7.86;79.27;101299.06;1748857;80;20308;-72
2021/04/19 04:10:08;;;;;;;;;;;;;;;7.92;79.29;101266.91;1747682;80;20212;-72
2021/04/19 04:12:36;;;;;;;;;;;;;;;7.97;79.27;101247.20;1757221;80;20313;-72
2021/04/19 04:15:04;;;;;;;;;;;;;;;8.00;79.22;101228.75;1710625;81;20207;-72
2021/04/19 04:17:31;;;;;;;;;;;;;;;8.04;79.33;101227.48;1746263;80;20598;-72
2021/04/19 04:19:57;;;;;;;;;;;;;;;8.08;79.32;101221.49;1752691;80;20204;-72
2021/04/19 04:22:24;;;;;;;;;;;;;;;8.11;79.34;101216.35;1753100;80;20551;-72
2021/04/19 04:24:51;;;;;;;;;;;;;;;8.15;79.33;101213.36;1738715;80;20517;-72
2021/04/19 04:27:17;;;;;;;;;;;;;;;8.16;79.35;101209.50;1753507;80;20571;-72
2021/04/19 04:29:44;;;;;;;;;;;;;;;8.21;79.42;101200.50;1745412;80;20454;-72
2021/04/19 04:32:11;;;;;;;;;;;;;;;8.26;79.42;101198.38;1750202;80;20460;-72
2021/04/19 04:34:39;;;;;;;;;;;;;;;8.32;79.52;101189.77;1751037;80;20177;-72
2021/04/19 04:37:07;;;;;;;;;;;;;;;8.38;79.51;101181.23;1739100;80;33232;-72
2021/04/19 04:39:33;;;;;;;;;;;;;;;8.44;79.50;101183.39;1743027;80;20441;-72
2021/04/19 04:41:59;;;;;;;;;;;;;;;8.50;79.51;101181.25;1748155;80;20272;-72
2021/04/19 04:44:34;;;;;;;;;;;;;;;8.55;79.52;101180.83;1740793;80;20480;-72
2021/04/19 04:47:18;;;;;;;;;;;;;;;8.62;79.56;101174.40;1733460;81;20456;-72
2021/04/19 04:49:57;;;;;;;;;;;;;;;8.73;79.61;101178.28;1747938;80;20472;-72
2021/04/19 04:52:24;;;;;;;;;;;;;;;8.82;79.62;101180.00;1754109;80;20182;-72
2021/04/19 04:54:50;;;;;;;;;;;;;;;8.92;79.67;101172.66;1738191;80;20468;-72
2021/04/19 04:57:24;;;;;;;;;;;;;;;9.05;79.71;101177.38;1749383;80;20248;-72
2021/04/19 04:59:51;;;;;;;;;;;;;;;9.14;79.65;101174.80;1751575;80;20159;-72
2021/04/19 05:02:24;;;;;;;;;;;;;;;9.28;79.73;101175.21;1746056;80;20161;-72
2021/04/19 05:04:52;;;;;;;;;;;;;;;9.44;79.78;101175.16;1751914;80;20454;-72
2021/04/19 05:07:18;;;;;;;;;;;;;;;9.66;79.77;101178.11;1743567;80;20459;-72
2021/04/19 05:09:47;;;;;;;;;;;;;;;9.92;79.80;101183.14;1757584;80;20444;-72
2021/04/19 05:12:13;;;;;;;;;;;;;;;10.25;79.93;101181.73;1742855;80;20286;-72
2021/04/19 05:14:40;;;;;;;;;;;;;;;10.62;79.90;101180.18;1745467;80;20615;-72
2021/04/19 05:17:07;;;;;;;;;;;;;;;10.77;79.32;101183.09;1741944;80;20802;-72
2021/04/19 05:19:33;;;;;;;;;;;;;;;10.72;79.10;101176.66;1751575;80;20272;-72
2021/04/19 05:22:01;;;;;;;;;;;;;;;10.69;79.05;101179.27;1728420;80;20558;-72
2021/04/19 05:24:27;;;;;;;;;;;;;;;10.73;79.13;101173.20;1755144;80;20283;-72
2021/04/19 05:26:53;;;;;;;;;;;;;;;10.81;79.16;101173.14;1753870;80;20267;-72
2021/04/19 05:29:20;;;;;;;;;;;;;;;10.84;78.96;101175.27;1753113;80;20539;-72
2021/04/19 05:31:46;;;;;;;;;;;;;;;10.81;79.06;101177.02;1754127;80;20256;-72
2021/04/19 05:34:13;;;;;;;;;;;;;;;10.86;79.00;101185.17;1751506;80;20273;-73
2021/04/19 05:36:39;;;;;;;;;;;;;;;10.89;79.12;101179.11;1748844;81;20488;-72
2021/04/19 05:39:06;;;;;;;;;;;;;;;10.92;79.03;101179.06;1752824;80;20299;-72
2021/04/19 05:41:33;;;;;;;;;;;;;;;10.84;78.89;101173.12;1750763;80;20708;-72
2021/04/19 05:43:59;;;;;;;;;;;;;;;10.91;79.22;101171.77;1750022;80;20583;-73
2021/04/19 05:46:25;;;;;;;;;;;;;;;11.00;79.08;101175.11;1752006;80;20687;-73
2021/04/19 05:48:51;;;;;;;;;;;;;;;11.00;78.94;101178.99;1754756;80;20300;-75
2021/04/19 05:51:27;;;;;;;;;;;;;;;11.13;79.36;101172.41;1750884;80;20268;-73
2021/04/19 05:53:55;;;;;;;;;;;;;;;11.47;79.62;101173.33;1721991;80;20282;-74
2021/04/19 05:56:37;;;;;;;;;;;;;;;11.90;79.62;101171.14;1748408;80;20725;-74
2021/04/19 05:59:13;;;;;;;;;;;;;;;12.29;79.43;101167.14;1750062;80;20288;-74
2021/04/19 06:01:41;;;;;;;;;;;;;;;12.52;78.80;101168.93;1750125;80;20165;-73
2021/04/19 06:04:19;;;;;;;;;;;;;;;12.45;78.32;101171.67;1754916;80;20240;-73
2021/04/19 06:06:58;;;;;;;;;;;;;;;12.41;78.29;101172.59;1754590;80;20165;-74
2021/04/19 06:09:36;;;;;;;;;;;;;;;12.29;78.07;101176.66;1756347;80;20432;-73
2021/04/19 06:12:06;;;;;;;;;;;;;;;12.38;78.81;101186.46;1753726;80;20432;-73
2021/04/19 06:14:35;;;;;;;;;;;;;;;12.74;79.03;101182.87;1756912;80;20177;-74
2021/04/19 06:17:03;;;;;;;;;;;;;;;13.10;78.83;101187.44;1755695;80;20469;-73
2021/04/19 06:19:31;;;;;;;;;;;;;;;13.35;78.60;101177.50;1749114;80;20460;-73
2021/04/19 06:21:57;;;;;;;;;;;;;;;13.57;78.30;101175.33;1759931;80;20456;-73
2021/04/19 06:24:23;;;;;;;;;;;;;;;13.78;78.19;101180.11;1756040;80;20303;-73
2021/04/19 06:26:49;;;;;;;;;;;;;;;13.93;77.84;101168.98;1750982;80;20827;-73
2021/04/19 06:29:21;;;;;;;;;;;;;;;14.03;77.96;101165.30;1753266;80;20252;-73
2021/04/19 06:31:51;;;;;;;;;;;;;;;14.27;78.05;101162.14;1750747;80;20486;-73
2021/04/19 06:34:20;;;;;;;;;;;;;;;14.52;77.95;101152.92;1722333;81;20283;-73
2021/04/19 06:36:48;;;;;;;;;;;;;;;14.78;77.88;101150.11;1752292;80;20428;-73
2021/04/19 06:39:15;;;;;;;;;;;;;;;15.08;77.82;101153.66;1750882;80;20464;-73
2021/04/19 06:41:42;;;;;;;;;;;;;;;15.26;77.48;101156.23;1750184;80;20456;-73
2021/04/19 06:44:27;;;;;;;;;;;;;;;15.48;77.47;101146.94;1750719;80;20273;-73
2021/04/19 06:47:11;;;;;;;;;;;;;;;15.66;77.07;101159.91;1754345;80;20256;-73
2021/04/19 06:49:57;;;;;;;;;;;;;;;15.62;76.83;101159.14;1748666;80;20373;-73
2021/04/19 06:52:25;;;;;;;;;;;;;;;15.55;76.86;101155.00;1747738;80;20450;-73
2021/04/19 06:54:51;;;;;;;;;;;;;;;15.29;76.46;101156.16;1746684;80;20456;-73
2021/04/19 06:57:19;;;;;;;;;;;;;;;14.96;76.79;101150.95;1748723;80;20498;-73
2021/04/19 06:59:45;;;;;;;;;;;;;;;14.86;77.08;101152.93;1753386;80;20476;-73
2021/04/19 07:02:15;;;;;;;;;;;;;;;14.69;76.72;101142.08;1747877;80;20773;-73
2021/04/19 07:04:59;;;;;;;;;;;;;;;14.47;76.43;101143.06;1750094;80;20452;-73
2021/04/19 07:07:31;;;;;;;;;;;;;;;14.16;76.94;101143.31;1752524;80;20294;-73
2021/04/19 07:09:58;;;;;;;;;;;;;;;14.18;76.73;101146.74;1749673;80;20299;-73
2021/04/19 07:12:24;;;;;;;;;;;;;;;14.03;76.91;101148.41;1741545;80;20300;-74
2021/04/19 07:14:54;;;;;;;;;;;;;;;13.96;76.91;101148.13;1753700;80;20619;-74
2021/04/19 07:17:21;;;;;;;;;;;;;;;13.90;77.14;101147.81;1755063;80;20264;-73
2021/04/19 07:19:47;;;;;;;;;;;;;;;14.15;77.45;101143.77;1752751;80;20254;-73
2021/04/19 07:22:15;;;;;;;;;;;;;;;14.33;76.88;101139.89;1753925;80;20343;-73
2021/04/19 07:24:42;;;;;;;;;;;;;;;14.31;76.73;101142.12;1751373;80;20190;-73
2021/04/19 07:27:11;;;;;;;;;;;;;;;14.37;76.91;101153.23;1747270;80;20300;-73
2021/04/19 07:29:41;;;;;;;;;;;;;;;14.42;76.72;101141.02;1755530;80;20556;-74
2021/04/19 07:32:07;;;;;;;;;;;;;;;14.69;77.15;101147.73;1746240;80;20591;-73
2021/04/19 07:34:34;;;;;;;;;;;;;;;14.93;76.76;101147.12;1749860;80;20272;-73
2021/04/19 07:37:03;;;;;;;;;;;;;;;14.86;76.02;101138.61;1752138;80;20289;-73
2021/04/19 07:39:39;;;;;;;;;;;;;;;14.70;76.37;101135.98;1749013;80;20585;-73
2021/04/19 07:42:07;;;;;;;;;;;;;;;14.78;76.19;101137.09;1754771;80;20295;-73
2021/04/19 07:44:35;;;;;;;;;;;;;;;14.95;76.58;101134.92;1755035;80;20292;-73
2021/04/19 07:47:21;;;;;;;;;;;;;;;15.01;76.01;101129.55;1749122;80;20283;-73
2021/04/19 07:50:03;;;;;;;;;;;;;;;15.13;76.22;101116.62;1749225;80;20275;-73
2021/04/19 07:52:30;;;;;;;;;;;;;;;15.28;76.01;101120.57;1746020;80;20310;-73
2021/04/19 07:55:08;;;;;;;;;;;;;;;15.41;75.88;101117.59;1748272;80;20280;-73
2021/04/19 07:57:34;;;;;;;;;;;;;;;15.55;76.02;101118.50;1750128;80;20159;-73
2021/04/19 08:00:03;;;;;;;;;;;;;;;15.69;75.72;101116.81;1752009;80;20826;-73
2021/04/19 08:02:30;;;;;;;;;;;;;;;15.84;75.80;101116.36;1757324;80;20252;-74
2021/04/19 08:04:56;;;;;;;;;;;;;;;15.99;75.64;101117.21;1753803;80;20264;-73
2021/04/19 08:07:28;;;;;;;;;;;;;;;15.96;75.11;101116.00;1754888;80;20153;-73
2021/04/19 08:10:01;;;;;;;;;;;;;;;15.91;75.22;101106.60;1753069;80;20274;-73
2021/04/19 08:12:42;;;;;;;;;;;;;;;15.98;75.20;101110.28;1749648;80;20164;-73
2021/04/19 08:15:14;;;;;;;;;;;;;;;16.04;74.82;101102.73;1756928;80;20141;-73
2021/04/19 08:17:41;;;;;;;;;;;;;;;16.09;75.43;101106.05;1756426;80;20161;-74
2021/04/19 08:20:09;;;;;;;;;;;;;;;16.25;75.20;101108.55;1753269;80;20161;-73
2021/04/19 08:22:38;;;;;;;;;;;;;;;16.31;75.37;101111.42;1752884;80;20160;-73
2021/04/19 08:25:22;;;;;;;;;;;;;;;16.39;75.09;101107.66;1756187;80;20253;-73
2021/04/19 08:28:03;;;;;;;;;;;;;;;16.38;74.96;101112.48;1755892;80;20185;-73
2021/04/19 08:30:30;;;;;;;;;;;;;;;16.42;75.15;101102.80;1752659;80;20248;-73
2021/04/19 08:32:58;;;;;;;;;;;;;;;16.49;75.08;101099.94;1730029;80;20165;-73
2021/04/19 08:35:25;;;;;;;;;;;;;;;16.50;74.95;101102.10;1748757;80;20140;-73
2021/04/19 08:37:52;;;;;;;;;;;;;;;16.36;74.73;101103.84;1754491;80;20161;-73
2021/04/19 08:40:19;;;;;;;;;;;;;;;16.35;74.95;101102.59;1750838;80;20448;-73
2021/04/19 08:42:46;;;;;;;;;;;;;;;16.31;74.65;101103.14;1755984;80;20520;-73
2021/04/19 08:45:13;;;;;;;;;;;;;;;16.66;74.57;101101.14;1752261;80;20445;-74
2021/04/19 08:47:39;;;;;;;;;;;;;;;17.20;74.45;101103.60;1753197;80;20249;-73
2021/04/19 08:50:09;;;;;;;;;;;;;;;17.70;74.35;101092.61;1754697;80;20169;-74
2021/04/19 08:52:36;;;;;;;;;;;;;;;18.11;74.18;101096.70;1756076;80;20280;-74
2021/04/19 08:55:05;;;;;;;;;;;;;;;18.46;74.11;101097.42;1751945;80;20539;-73
2021/04/19 08:57:32;;;;;;;;;;;;;;;18.69;73.99;101096.97;1754469;80;20464;-73
2021/04/19 08:59:58;;;;;;;;;;;;;;;18.83;73.98;101094.13;1750411;80;20268;-73
2021/04/19 09:02:25;;;;;;;;;;;;;;;18.93;74.07;101092.43;1751351;80;21613;-73
2021/04/19 09:05:12;;;;;;;;;;;;;;;18.96;73.95;101091.84;1754053;80;20662;-73
2021/04/19 09:07:43;;;;;;;;;;;;;;;18.87;73.91;101097.47;1747560;80;20579;-74
2021/04/19 09:10:14;;;;;;;;;;;;;;;18.45;73.87;101095.72;1749757;80;20289;-73
2021/04/19 09:12:41;;;;;;;;;;;;;;;18.10;74.06;101093.69;1751276;80;20670;-73
2021/04/19 09:15:29;;;;;;;;;;;;;;;17.80;74.18;101095.27;1749312;80;20586;-73
2021/04/19 09:18:01;;;;;;;;;;;;;;;17.57;73.89;101100.97;1748757;80;20304;-74
2021/04/19 09:20:50;;;;;;;;;;;;;;;17.28;73.65;101107.25;1752794;80;20680;-74
2021/04/19 09:23:19;;;;;;;;;;;;;;;17.13;73.69;101107.37;1753625;80;20535;-74
2021/04/19 09:25:45;;;;;;;;;;;;;;;17.05;73.46;101105.02;1750661;80;20678;-73
2021/04/19 09:28:11;;;;;;;;;;;;;;;16.96;73.48;101114.94;1752478;80;21140;-73
2021/04/19 09:30:45;;;;;;;;;;;;;;;16.82;73.27;101111.03;1749387;80;20211;-73
2021/04/19 09:33:18;;;;;;;;;;;;;;;16.68;73.15;101104.56;1751330;80;20277;-74
2021/04/19 09:35:45;;;;;;;;;;;;;;;16.69;73.17;101108.88;1739598;80;20501;-73
2021/04/19 09:38:18;;;;;;;;;;;;;;;16.70;73.20;101108.83;1756041;80;20490;-74
2021/04/19 09:40:54;;;;;;;;;;;;;;;16.72;72.75;101107.02;1754097;80;20263;-74
2021/04/19 09:43:35;;;;;;;;;;;;;;;16.63;72.68;101106.47;1753518;80;20292;-73
2021/04/19 09:46:10;;;;;;;;;;;;;;;16.60;72.68;101102.20;1748811;80;20469;-73
2021/04/19 09:48:39;;;;;;;;;;;;;;;16.62;72.68;101100.84;1750252;80;20205;-73
2021/04/19 09:51:17;;;;;;;;;;;;;;;16.61;72.54;101103.05;1758028;80;20270;-73
2021/04/19 09:54:05;;;;;;;;;;;;;;;16.62;72.40;101099.54;1750044;80;20264;-73
2021/04/19 09:56:34;;;;;;;;;;;;;;;16.65;72.41;101097.68;1749139;80;20678;-73
2021/04/19 09:59:04;;;;;;;;;;;;;;;16.74;72.19;101095.22;1754933;80;20538;-73
2021/04/19 10:01:31;;;;;;;;;;;;;;;16.74;71.98;101096.52;1748256;80;20300;-73
2021/04/19 10:03:58;;;;;;;;;;;;;;;16.73;71.92;101096.12;1757677;80;20161;-73
2021/04/19 10:06:34;;;;;;;;;;;;;;;16.75;71.94;101095.62;1754267;80;20547;-73
2021/04/19 10:09:05;;;;;;;;;;;;;;;16.73;71.75;101098.28;1752174;80;20267;-73
2021/04/19 10:11:34;;;;;;;;;;;;;;;16.72;71.55;101086.12;1753441;80;20276;-73
2021/04/19 10:14:13;;;;;;;;;;;;;;;16.73;71.65;101086.98;1748726;80;20243;-73
2021/04/19 10:16:41;;;;;;;;;;;;;;;16.73;71.55;101088.29;1754532;80;20452;-73
2021/04/19 10:19:08;;;;;;;;;;;;;;;16.72;71.35;101080.05;1720413;80;20531;-73
2021/04/19 10:21:35;;;;;;;;;;;;;;;16.78;71.59;101082.45;1741934;80;20259;-73
2021/04/19 10:24:01;;;;;;;;;;;;;;;16.83;71.43;101083.16;1751508;80;20245;-73
2021/04/19 10:26:37;;;;;;;;;;;;;;;16.87;71.30;101072.55;1757481;80;20576;-73
2021/04/19 10:29:19;;;;;;;;;;;;;;;16.92;71.30;101071.08;1750031;80;20291;-73
2021/04/19 10:31:55;;;;;;;;;;;;;;;16.93;70.80;101064.95;1749159;80;20181;-73
2021/04/19 10:34:24;;;;;;;;;;;;;;;16.96;71.18;101068.77;1751402;80;20160;-73
2021/04/19 10:36:53;;;;;;;;;;;;;;;17.00;70.79;101062.52;1744571;80;20188;-72
2021/04/19 10:39:27;;;;;;;;;;;;;;;16.99;70.71;101055.59;1756269;80;20252;-72
2021/04/19 10:41:57;;;;;;;;;;;;;;;17.03;70.71;101062.42;1759289;80;20248;-72
2021/04/19 10:44:39;;;;;;;;;;;;;;;17.04;70.60;101058.05;1753889;80;20256;-72
2021/04/19 10:47:06;;;;;;;;;;;;;;;17.03;70.59;101066.34;1746680;80;20275;-72
2021/04/19 10:49:35;;;;;;;;;;;;;;;16.98;70.50;101064.80;1745552;80;20246;-72
2021/04/19 10:52:05;;;;;;;;;;;;;;;16.97;70.88;101064.39;1752061;80;20260;-73
2021/04/19 10:54:37;;;;;;;;;;;;;;;17.03;70.62;101058.50;1757074;80;20522;-72
2021/04/19 10:57:05;;;;;;;;;;;;;;;17.11;70.61;101063.45;1752467;80;20272;-72
2021/04/19 10:59:32;;;;;;;;;;;;;;;17.12;70.46;101065.16;1755282;80;20180;-72
2021/04/19 11:02:01;;;;;;;;;;;;;;;17.16;70.35;101064.96;1751028;80;20260;-72
2021/04/19 11:04:33;;;;;;;;;;;;;;;17.17;70.13;101065.36;1754396;80;20277;-72
2021/04/19 11:07:31;;;;;;;;;;;;;;;17.16;69.96;101062.80;1754151;80;20268;-72
2021/04/19 11:10:22;;;;;;;;;;;;;;;17.15;69.90;101063.73;1747637;80;20288;-74
2021/04/19 11:12:57;;;;;;;;;;;;;;;17.14;69.61;101064.65;1734953;81;20292;-74
2021/04/19 11:15:32;;;;;;;;;;;;;;;17.12;69.73;101066.02;1742722;81;20276;-73
2021/04/19 11:17:58;;;;;;;;;;;;;;;17.08;69.95;101055.72;1741593;80;20283;-74
2021/04/19 11:20:32;;;;;;;;;;;;;;;17.12;69.46;101056.02;1752110;80;21078;-77
2021/04/19 11:23:00;;;;;;;;;;;;;;;17.11;69.32;101060.39;1744342;81;20303;-76
2021/04/19 11:25:31;;;;;;;;;;;;;;;17.12;69.43;101050.33;1751235;80;20602;-74
2021/04/19 11:28:17;;;;;;;;;;;;;;;17.16;69.54;101054.51;1741602;80;20299;-74
2021/04/19 11:30:45;;;;;;;;;;;;;;;17.21;69.46;101047.81;1680094;83;20604;-74
2021/04/19 11:33:14;;;;;;;;;;;;;;;17.26;69.22;101049.80;1704538;82;20286;-74
2021/04/19 11:35:43;;;;;;;;;;;;;;;17.23;69.26;101047.30;1752357;80;20323;-75
2021/04/19 11:38:22;;;;;;;;;;;;;;;17.19;69.09;101045.25;1742868;80;20295;-74
2021/04/19 11:40:59;;;;;;;;;;;;;;;17.18;69.24;101045.30;1752912;80;20261;-74
2021/04/19 11:43:28;;;;;;;;;;;;;;;17.16;69.03;101039.28;1740819;80;20298;-74
2021/04/19 11:46:05;;;;;;;;;;;;;;;17.21;69.38;101034.28;1749706;80;20256;-74
2021/04/19 11:48:33;;;;;;;;;;;;;;;17.27;69.09;101033.21;1747576;80;20288;-75
2021/04/19 11:51:06;;;;;;;;;;;;;;;17.29;69.04;101035.77;1739969;80;20275;-74
2021/04/19 11:53:34;;;;;;;;;;;;;;;17.26;68.94;101032.81;1712196;81;20280;-74
2021/04/19 11:56:02;;;;;;;;;;;;;;;17.29;68.88;101035.77;1747638;81;21082;-74
2021/04/19 11:58:29;;;;;;;;;;;;;;;17.30;68.78;101037.47;1735529;81;20248;-74
2021/04/19 12:00:55;;;;;;;;;;;;;;;17.28;68.79;101029.69;1739095;81;20252;-74
2021/04/19 12:03:22;;;;;;;;;;;;;;;17.32;68.91;101031.28;1737579;81;355364;-74
2021/04/19 12:05:48;;;;;;;;;;;;;;;17.38;68.79;101033.66;1749800;81;20197;-74
2021/04/19 12:08:14;;;;;;;;;;;;;;;17.42;68.73;101029.17;1740075;81;20252;-74
2021/04/19 12:10:41;;;;;;;;;;;;;;;17.49;68.67;101033.27;1742014;81;20257;-74
2021/04/19 12:13:14;;;;;;;;;;;;;;;17.51;68.51;101032.30;1740856;81;20272;-74
2021/04/19 12:15:35;;;;;;;;;;;;;;;17.55;68.60;101034.34;1751923;81;20472;-74
2021/04/19 12:18:01;;;;;;;;;;;;;;;17.51;68.55;101027.52;1745777;81;20252;-74
2021/04/19 12:20:28;;;;;;;;;;;;;;;17.51;68.43;101030.14;1749927;81;20153;-74
2021/04/19 12:23:07;;;;;;;;;;;;;;;17.54;68.35;101027.41;1760529;80;20169;-74
2021/04/19 12:25:33;;;;;;;;;;;;;;;17.59;68.33;101024.61;1755022;81;20259;-74
2021/04/19 12:27:59;;;;;;;;;;;;;;;17.60;68.22;101017.17;1755419;81;20269;-74
2021/04/19 12:30:28;;;;;;;;;;;;;;;17.59;68.28;101022.00;1746614;81;20252;-74
2021/04/19 12:32:54;;;;;;;;;;;;;;;17.55;68.05;101019.95;1751912;80;20252;-74
2021/04/19 12:35:21;;;;;;;;;;;;;;;17.57;68.04;101012.05;1742157;81;20268;-74
2021/04/19 12:37:48;;;;;;;;;;;;;;;17.58;68.14;101009.38;1740434;81;20261;-74
2021/04/19 12:40:16;;;;;;;;;;;;;;;17.62;68.03;101012.27;1738745;80;20266;-74
2021/04/19 12:42:42;;;;;;;;;;;;;;;17.66;67.98;101007.81;1756227;80;20157;-74
2021/04/19 12:45:09;;;;;;;;;;;;;;;17.74;68.07;101007.02;1754935;80;20200;-74
2021/04/19 12:47:36;;;;;;;;;;;;;;;17.77;67.95;101006.45;1759757;80;20161;-74
2021/04/19 12:50:04;;;;;;;;;;;;;;;17.82;67.89;101005.81;1752158;80;20275;-74
2021/04/19 12:52:30;;;;;;;;;;;;;;;17.83;67.78;101005.36;1744004;80;20256;-74
2021/04/19 12:54:58;;;;;;;;;;;;;;;17.87;67.91;101003.02;1764413;80;20290;-75